createdAt,value
2022-08-29T00:00:17.573Z,940
2022-08-29T00:01:12.469Z,939.95
2022-08-29T00:02:13.286Z,939.97
2022-08-29T00:03:13.756Z,939.97
2022-08-29T00:04:14.435Z,939.94
2022-08-29T00:05:15.473Z,939.94
2022-08-29T00:06:15.896Z,939.93
2022-08-29T00:07:16.117Z,939.96
2022-08-29T00:08:16.318Z,939.96
2022-08-29T00:09:17.225Z,939.95
2022-08-29T00:10:17.581Z,939.98
2022-08-29T00:11:18.242Z,939.97
2022-08-29T00:12:18.459Z,939.99
2022-08-29T00:13:18.780Z,939.99
2022-08-29T00:14:20.488Z,940
2022-08-29T00:15:19.819Z,940.01
2022-08-29T00:16:20.731Z,940
2022-08-29T00:17:20.744Z,940.01
2022-08-29T00:18:20.941Z,939.98
2022-08-29T00:19:21.984Z,940
2022-08-29T00:20:22.959Z,939.95
2022-08-29T00:21:22.883Z,939.97
2022-08-29T00:22:23.370Z,939.97
2022-08-29T00:23:23.573Z,939.96
2022-08-29T00:24:23.769Z,939.98
2022-08-29T00:25:24.716Z,939.96
2022-08-29T00:26:24.913Z,939.98
2022-08-29T00:27:25.833Z,940.05
2022-08-29T00:28:26.212Z,939.99
2022-08-29T00:29:26.433Z,940.03
2022-08-29T00:30:26.725Z,940.02
2022-08-29T00:31:26.976Z,940.05
2022-08-29T00:32:27.241Z,940.04
2022-08-29T00:33:28.140Z,940.05
2022-08-29T00:34:28.460Z,940.03
2022-08-29T00:35:29.379Z,940.03
2022-08-29T00:36:30.475Z,939.99
2022-08-29T00:37:30.854Z,940.03
2022-08-29T00:38:31.033Z,940
2022-08-29T00:39:32.848Z,940.02
2022-08-29T00:40:31.673Z,939.99
2022-08-29T00:41:32.148Z,939.97
2022-08-29T00:42:32.490Z,939.96
2022-08-29T00:43:33.112Z,939.98
2022-08-29T00:44:33.302Z,939.97
2022-08-29T00:45:33.571Z,939.95
2022-08-29T00:46:34.103Z,939.98
2022-08-29T00:47:34.729Z,939.93
2022-08-29T00:48:34.953Z,939.95
2022-08-29T00:49:35.208Z,939.91
2022-08-29T00:50:35.933Z,939.9
2022-08-29T00:51:36.868Z,939.92
2022-08-29T00:52:37.784Z,939.9
2022-08-29T00:53:38.676Z,939.86
2022-08-29T00:54:38.894Z,939.89
2022-08-29T00:55:39.082Z,939.87
2022-08-29T00:56:39.915Z,939.85
2022-08-29T00:57:40.831Z,939.84
2022-08-29T00:58:41.752Z,939.81
2022-08-29T00:59:41.952Z,939.83
2022-08-29T01:00:43.011Z,939.83
2022-08-29T01:01:44.008Z,939.79
2022-08-29T01:02:44.915Z,939.82
2022-08-29T01:03:45.126Z,939.82
2022-08-29T01:04:45.748Z,939.79
2022-08-29T01:05:46.669Z,939.79
2022-08-29T01:06:47.005Z,939.77
2022-08-29T01:07:47.205Z,939.78
2022-08-29T01:08:48.095Z,939.8
2022-08-29T01:09:48.606Z,939.82
2022-08-29T01:10:49.103Z,939.84
2022-08-29T01:11:49.998Z,939.82
2022-08-29T01:12:50.914Z,939.87
2022-08-29T01:13:51.849Z,939.84
2022-08-29T01:14:52.141Z,939.87
2022-08-29T01:15:52.952Z,939.82
2022-08-29T01:16:53.261Z,939.84
2022-08-29T01:17:53.490Z,939.85
2022-08-29T01:18:53.772Z,939.86
2022-08-29T01:19:54.418Z,939.85
2022-08-29T01:20:54.840Z,939.8
2022-08-29T01:21:55.034Z,939.8
2022-08-29T01:22:55.667Z,939.82
2022-08-29T01:23:55.890Z,939.82
2022-08-29T01:24:56.923Z,939.81
2022-08-29T01:25:57.114Z,939.82
2022-08-29T01:26:57.328Z,939.78
2022-08-29T01:27:57.518Z,939.78
2022-08-29T01:28:58.605Z,939.79
2022-08-29T01:29:58.805Z,939.78
2022-08-29T01:30:59.826Z,939.78
2022-08-29T01:32:00.585Z,939.75
2022-08-29T01:33:01.035Z,939.73
2022-08-29T01:34:01.215Z,939.76
2022-08-29T01:35:01.420Z,939.75
2022-08-29T01:36:01.614Z,939.75
2022-08-29T01:37:01.837Z,939.78
2022-08-29T01:38:02.759Z,939.77
2022-08-29T01:39:03.669Z,939.76
2022-08-29T01:40:04.630Z,939.75
2022-08-29T01:41:04.735Z,939.78
2022-08-29T01:42:05.073Z,939.77
2022-08-29T01:43:05.695Z,939.73
2022-08-29T01:44:06.608Z,939.74
2022-08-29T01:45:09.639Z,939.78
2022-08-29T01:46:08.203Z,939.72
2022-08-29T01:47:08.295Z,939.77
2022-08-29T01:48:08.907Z,939.74
2022-08-29T01:49:09.533Z,939.77
2022-08-29T01:50:09.884Z,939.76
2022-08-29T01:51:10.920Z,939.71
2022-08-29T01:52:11.133Z,939.71
2022-08-29T01:53:11.331Z,939.7
2022-08-29T01:54:11.893Z,939.68
2022-08-29T01:55:12.779Z,939.68
2022-08-29T01:56:13.492Z,939.67
2022-08-29T01:57:14.116Z,939.67
2022-08-29T01:58:15.152Z,939.66
2022-08-29T01:59:15.170Z,939.64
2022-08-29T02:00:16.095Z,939.65
2022-08-29T02:01:17.184Z,939.64
2022-08-29T02:02:18.112Z,939.67
2022-08-29T02:03:18.897Z,939.67
2022-08-29T02:04:19.836Z,939.68
2022-08-29T02:05:20.754Z,939.71
2022-08-29T02:06:21.675Z,939.73
2022-08-29T02:07:21.868Z,939.69
2022-08-29T02:08:22.503Z,939.68
2022-08-29T02:09:23.419Z,939.73
2022-08-29T02:10:23.564Z,939.7
2022-08-29T02:11:23.853Z,939.7
2022-08-29T02:12:24.350Z,939.72
2022-08-29T02:13:25.240Z,939.71
2022-08-29T02:14:25.860Z,939.68
2022-08-29T02:15:26.152Z,939.71
2022-08-29T02:16:27.097Z,939.69
2022-08-29T02:17:27.328Z,939.68
2022-08-29T02:18:27.526Z,939.66
2022-08-29T02:19:28.440Z,939.66
2022-08-29T02:20:28.925Z,939.66
2022-08-29T02:21:29.526Z,939.66
2022-08-29T02:22:29.755Z,939.66
2022-08-29T02:23:31.376Z,939.66
2022-08-29T02:24:31.609Z,939.65
2022-08-29T02:25:32.503Z,939.69
2022-08-29T02:26:33.123Z,939.7
2022-08-29T02:27:34.051Z,939.72
2022-08-29T02:28:34.976Z,939.74
2022-08-29T02:29:37.549Z,939.74
2022-08-29T02:30:36.626Z,939.72
2022-08-29T02:31:37.035Z,939.74
2022-08-29T02:32:37.756Z,939.73
2022-08-29T02:33:38.260Z,939.73
2022-08-29T02:34:38.458Z,939.72
2022-08-29T02:35:42.227Z,939.72
2022-08-29T02:36:40.192Z,939.7
2022-08-29T02:37:40.189Z,939.69
2022-08-29T02:38:41.123Z,939.7
2022-08-29T02:39:41.317Z,939.74
2022-08-29T02:40:41.997Z,939.72
2022-08-29T02:41:44.352Z,939.75
2022-08-29T02:42:42.466Z,939.76
2022-08-29T02:43:43.527Z,939.8
2022-08-29T02:44:43.720Z,939.81
2022-08-29T02:45:44.340Z,939.77
2022-08-29T02:46:44.727Z,939.76
2022-08-29T02:47:45.408Z,939.78
2022-08-29T02:48:47.560Z,939.78
2022-08-29T02:49:46.449Z,939.76
2022-08-29T02:50:46.807Z,939.81
2022-08-29T02:51:47.532Z,939.81
2022-08-29T02:52:47.734Z,939.81
2022-08-29T02:53:48.659Z,939.81
2022-08-29T02:54:49.003Z,939.81
2022-08-29T02:55:49.921Z,939.82
2022-08-29T02:56:50.724Z,939.82
2022-08-29T02:57:51.317Z,939.83
2022-08-29T02:58:51.690Z,939.78
2022-08-29T02:59:51.898Z,939.78
2022-08-29T03:00:52.427Z,939.78
2022-08-29T03:01:52.993Z,939.76
2022-08-29T03:02:53.574Z,939.73
2022-08-29T03:03:53.779Z,939.72
2022-08-29T03:04:54.395Z,939.72
2022-08-29T03:05:55.080Z,939.73
2022-08-29T03:06:56.000Z,939.74
2022-08-29T03:07:56.203Z,939.72
2022-08-29T03:08:57.011Z,939.73
2022-08-29T03:09:57.247Z,939.74
2022-08-29T03:10:57.569Z,939.78
2022-08-29T03:11:58.467Z,939.75
2022-08-29T03:12:58.685Z,939.8
2022-08-29T03:13:59.325Z,939.77
2022-08-29T03:14:59.712Z,939.8
2022-08-29T03:16:00.364Z,939.81
2022-08-29T03:17:00.599Z,939.76
2022-08-29T03:18:01.309Z,939.77
2022-08-29T03:19:01.935Z,939.79
2022-08-29T03:20:02.848Z,939.8
2022-08-29T03:21:03.765Z,939.79
2022-08-29T03:22:04.768Z,939.81
2022-08-29T03:23:05.682Z,939.81
2022-08-29T03:24:06.201Z,939.8
2022-08-29T03:25:06.543Z,939.85
2022-08-29T03:26:07.164Z,939.79
2022-08-29T03:27:07.380Z,939.81
2022-08-29T03:28:08.297Z,939.81
2022-08-29T03:29:08.652Z,939.74
2022-08-29T03:30:10.882Z,939.76
2022-08-29T03:31:09.976Z,939.81
2022-08-29T03:32:10.738Z,939.75
2022-08-29T03:33:12.159Z,939.72
2022-08-29T03:34:12.132Z,939.75
2022-08-29T03:35:12.634Z,939.74
2022-08-29T03:36:13.702Z,939.76
2022-08-29T03:37:13.735Z,939.74
2022-08-29T03:38:14.781Z,939.77
2022-08-29T03:39:15.046Z,939.76
2022-08-29T03:40:15.325Z,939.74
2022-08-29T03:41:16.092Z,939.72
2022-08-29T03:42:16.394Z,939.78
2022-08-29T03:43:16.596Z,939.76
2022-08-29T03:44:17.168Z,939.73
2022-08-29T03:45:17.307Z,939.78
2022-08-29T03:46:17.558Z,939.76
2022-08-29T03:47:18.092Z,939.7
2022-08-29T03:48:18.312Z,939.73
2022-08-29T03:49:19.201Z,939.77
2022-08-29T03:50:19.397Z,939.74
2022-08-29T03:51:20.091Z,939.77
2022-08-29T03:52:20.675Z,939.77
2022-08-29T03:53:20.900Z,939.79
2022-08-29T03:54:21.213Z,939.78
2022-08-29T03:55:21.859Z,939.77
2022-08-29T03:56:22.354Z,939.78
2022-08-29T03:57:22.973Z,939.8
2022-08-29T03:58:23.431Z,939.79
2022-08-29T03:59:23.650Z,939.77
2022-08-29T04:00:23.847Z,939.8
2022-08-29T04:01:24.436Z,939.81
2022-08-29T04:02:25.260Z,939.8
2022-08-29T04:03:26.551Z,939.79
2022-08-29T04:04:26.186Z,939.81
2022-08-29T04:05:27.028Z,939.8
2022-08-29T04:06:27.948Z,939.78
2022-08-29T04:07:28.437Z,939.78
2022-08-29T04:08:29.355Z,939.79
2022-08-29T04:09:29.847Z,939.8
2022-08-29T04:10:30.762Z,939.81
2022-08-29T04:11:31.410Z,939.77
2022-08-29T04:12:31.555Z,939.85
2022-08-29T04:13:31.926Z,939.83
2022-08-29T04:14:32.143Z,939.79
2022-08-29T04:15:32.640Z,939.79
2022-08-29T04:16:33.159Z,939.78
2022-08-29T04:17:33.176Z,939.8
2022-08-29T04:18:33.380Z,939.77
2022-08-29T04:19:33.575Z,939.74
2022-08-29T04:20:34.482Z,939.75
2022-08-29T04:21:35.396Z,939.8
2022-08-29T04:22:36.391Z,939.83
2022-08-29T04:23:36.925Z,939.82
2022-08-29T04:24:37.255Z,939.83
2022-08-29T04:25:37.894Z,939.91
2022-08-29T04:26:38.064Z,939.87
2022-08-29T04:27:38.335Z,939.88
2022-08-29T04:28:39.359Z,939.81
2022-08-29T04:29:39.853Z,939.84
2022-08-29T04:30:40.046Z,939.88
2022-08-29T04:31:41.185Z,939.9
2022-08-29T04:32:41.234Z,939.9
2022-08-29T04:33:41.853Z,939.91
2022-08-29T04:34:42.491Z,939.94
2022-08-29T04:35:42.981Z,939.92
2022-08-29T04:36:43.882Z,939.89
2022-08-29T04:37:44.330Z,939.88
2022-08-29T04:38:44.659Z,939.91
2022-08-29T04:39:45.162Z,939.93
2022-08-29T04:40:46.229Z,939.94
2022-08-29T04:41:47.147Z,939.92
2022-08-29T04:42:47.570Z,939.92
2022-08-29T04:43:47.770Z,939.94
2022-08-29T04:44:48.709Z,939.95
2022-08-29T04:45:49.626Z,939.97
2022-08-29T04:46:49.875Z,939.96
2022-08-29T04:47:50.537Z,939.97
2022-08-29T04:48:50.654Z,939.98
2022-08-29T04:49:51.658Z,939.98
2022-08-29T04:50:52.174Z,940.02
2022-08-29T04:51:52.379Z,940
2022-08-29T04:52:53.103Z,940.02
2022-08-29T04:53:54.032Z,940
2022-08-29T04:54:54.957Z,940.06
2022-08-29T04:55:55.289Z,940.04
2022-08-29T04:56:57.339Z,940.07
2022-08-29T04:57:56.444Z,940.09
2022-08-29T04:58:56.584Z,940.1
2022-08-29T04:59:57.671Z,940.1
2022-08-29T05:00:57.899Z,940.14
2022-08-29T05:01:58.442Z,940.16
2022-08-29T05:02:58.936Z,940.14
2022-08-29T05:04:00.035Z,940.16
2022-08-29T05:05:00.546Z,940.16
2022-08-29T05:06:00.746Z,940.19
2022-08-29T05:07:01.670Z,940.19
2022-08-29T05:08:02.272Z,940.2
2022-08-29T05:09:02.513Z,940.18
2022-08-29T05:10:03.015Z,940.2
2022-08-29T05:11:03.927Z,940.2
2022-08-29T05:12:08.345Z,940.2
2022-08-29T05:13:05.058Z,940.2
2022-08-29T05:14:06.002Z,940.17
2022-08-29T05:15:06.609Z,940.22
2022-08-29T05:16:07.555Z,940.23
2022-08-29T05:17:07.965Z,940.25
2022-08-29T05:18:08.877Z,940.22
2022-08-29T05:19:09.708Z,940.24
2022-08-29T05:20:09.871Z,940.25
2022-08-29T05:21:10.493Z,940.27
2022-08-29T05:22:11.414Z,940.21
2022-08-29T05:23:11.852Z,940.27
2022-08-29T05:24:12.937Z,940.2
2022-08-29T05:25:17.525Z,940.22
2022-08-29T05:26:13.286Z,940.23
2022-08-29T05:27:13.926Z,940.21
2022-08-29T05:28:14.982Z,940.21
2022-08-29T05:29:15.937Z,940.21
2022-08-29T05:30:19.865Z,940.24
2022-08-29T05:31:17.649Z,940.26
2022-08-29T05:32:18.156Z,940.25
2022-08-29T05:33:19.170Z,940.25
2022-08-29T05:34:32.597Z,940.24
2022-08-29T05:35:20.625Z,940.25
2022-08-29T05:36:21.272Z,940.21
2022-08-29T05:37:21.479Z,940.26
2022-08-29T05:38:22.098Z,940.26
2022-08-29T05:39:23.024Z,940.28
2022-08-29T05:40:24.036Z,940.27
2022-08-29T05:41:24.240Z,940.26
2022-08-29T05:42:25.319Z,940.26
2022-08-29T05:43:25.496Z,940.27
2022-08-29T05:44:25.695Z,940.28
2022-08-29T05:45:25.967Z,940.26
2022-08-29T05:46:26.600Z,940.27
2022-08-29T05:47:27.213Z,940.23
2022-08-29T05:48:27.537Z,940.22
2022-08-29T05:49:28.154Z,940.22
2022-08-29T05:50:28.353Z,940.23
2022-08-29T05:51:28.852Z,940.24
2022-08-29T05:52:29.749Z,940.25
2022-08-29T05:53:30.604Z,940.27
2022-08-29T05:54:30.803Z,940.27
2022-08-29T05:55:31.305Z,940.24
2022-08-29T05:56:32.212Z,940.27
2022-08-29T05:57:32.587Z,940.29
2022-08-29T05:58:33.525Z,940.32
2022-08-29T05:59:33.746Z,940.32
2022-08-29T06:00:34.694Z,940.32
2022-08-29T06:01:35.190Z,940.34
2022-08-29T06:02:36.084Z,940.36
2022-08-29T06:03:36.847Z,940.37
2022-08-29T06:04:37.060Z,940.33
2022-08-29T06:05:37.403Z,940.33
2022-08-29T06:06:38.027Z,940.32
2022-08-29T06:07:38.223Z,940.33
2022-08-29T06:08:38.718Z,940.33
2022-08-29T06:09:39.616Z,940.31
2022-08-29T06:10:40.694Z,940.33
2022-08-29T06:11:40.928Z,940.31
2022-08-29T06:12:41.126Z,940.34
2022-08-29T06:13:41.841Z,940.33
2022-08-29T06:14:42.053Z,940.34
2022-08-29T06:15:42.919Z,940.34
2022-08-29T06:16:43.534Z,940.32
2022-08-29T06:17:44.433Z,940.36
2022-08-29T06:18:45.075Z,940.36
2022-08-29T06:19:45.288Z,940.36
2022-08-29T06:20:46.217Z,940.4
2022-08-29T06:21:46.437Z,940.35
2022-08-29T06:22:47.177Z,940.4
2022-08-29T06:23:48.201Z,940.4
2022-08-29T06:24:48.421Z,940.42
2022-08-29T06:25:48.547Z,940.42
2022-08-29T06:26:49.584Z,940.45
2022-08-29T06:27:49.824Z,940.48
2022-08-29T06:28:50.473Z,940.46
2022-08-29T06:29:50.713Z,940.44
2022-08-29T06:30:51.438Z,940.46
2022-08-29T06:31:51.759Z,940.48
2022-08-29T06:32:51.975Z,940.5
2022-08-29T06:33:52.986Z,940.47
2022-08-29T06:34:53.915Z,940.5
2022-08-29T06:35:54.119Z,940.52
2022-08-29T06:36:55.039Z,940.55
2022-08-29T06:37:55.992Z,940.58
2022-08-29T06:38:57.025Z,940.55
2022-08-29T06:39:57.977Z,940.64
2022-08-29T06:40:58.752Z,940.64
2022-08-29T06:41:59.409Z,940.66
2022-08-29T06:43:00.336Z,940.68
2022-08-29T06:44:01.344Z,940.7
2022-08-29T06:45:02.289Z,940.72
2022-08-29T06:46:03.014Z,940.74
2022-08-29T06:47:03.751Z,940.66
2022-08-29T06:48:04.660Z,940.68
2022-08-29T06:49:05.254Z,940.68
2022-08-29T06:50:06.332Z,940.71
2022-08-29T06:51:07.279Z,940.73
2022-08-29T06:52:08.063Z,940.7
2022-08-29T06:53:26.286Z,940.74
2022-08-29T06:54:20.424Z,940.73
2022-08-29T06:55:23.823Z,940.73
2022-08-29T06:56:21.151Z,940.74
2022-08-29T06:57:21.329Z,940.76
2022-08-29T06:58:21.540Z,940.74
2022-08-29T06:59:22.166Z,940.78
2022-08-29T07:00:23.117Z,940.76
2022-08-29T07:01:23.421Z,940.77
2022-08-29T07:02:24.184Z,940.78
2022-08-29T07:03:24.231Z,940.76
2022-08-29T07:04:26.589Z,940.73
2022-08-29T07:05:24.912Z,940.74
2022-08-29T07:06:25.835Z,940.72
2022-08-29T07:07:26.493Z,940.73
2022-08-29T07:08:27.087Z,940.71
2022-08-29T07:09:27.827Z,940.66
2022-08-29T07:10:28.738Z,940.68
2022-08-29T07:11:28.967Z,940.69
2022-08-29T07:12:29.551Z,940.69
2022-08-29T07:13:30.118Z,940.71
2022-08-29T07:14:31.115Z,940.69
2022-08-29T07:15:32.206Z,940.7
2022-08-29T07:16:32.894Z,940.7
2022-08-29T07:17:33.118Z,940.7
2022-08-29T07:18:34.092Z,940.7
2022-08-29T07:19:34.661Z,940.7
2022-08-29T07:20:34.773Z,940.7
2022-08-29T07:21:35.700Z,940.69
2022-08-29T07:22:36.328Z,940.68
2022-08-29T07:23:36.549Z,940.72
2022-08-29T07:24:36.847Z,940.73
2022-08-29T07:25:37.483Z,940.69
2022-08-29T07:26:38.403Z,940.71
2022-08-29T07:27:38.613Z,940.72
2022-08-29T07:28:40.654Z,940.77
2022-08-29T07:29:40.037Z,940.74
2022-08-29T07:30:40.218Z,940.74
2022-08-29T07:31:40.519Z,940.76
2022-08-29T07:32:41.420Z,940.78
2022-08-29T07:33:41.656Z,940.76
2022-08-29T07:34:44.103Z,940.78
2022-08-29T07:35:44.908Z,940.82
2022-08-29T07:36:45.059Z,940.84
2022-08-29T07:37:50.286Z,940.82
2022-08-29T07:38:46.945Z,940.8
2022-08-29T07:39:47.877Z,940.8
2022-08-29T07:40:48.626Z,940.8
2022-08-29T07:41:49.011Z,940.79
2022-08-29T07:42:49.241Z,940.8
2022-08-29T07:43:49.465Z,940.77
2022-08-29T07:44:50.470Z,940.78
2022-08-29T07:46:51.832Z,940.81
2022-08-29T07:47:52.761Z,940.83
2022-08-29T07:50:54.722Z,940.82
2022-08-29T07:51:55.118Z,940.82
2022-08-29T07:52:56.025Z,940.82
2022-08-29T07:53:56.229Z,940.89
2022-08-29T07:54:57.326Z,940.87
2022-08-29T07:55:57.829Z,940.86
2022-08-29T07:56:58.482Z,940.89
2022-08-29T07:57:58.685Z,940.86
2022-08-29T07:58:58.802Z,940.89
2022-08-29T08:02:00.888Z,940.84
2022-08-29T08:06:03.824Z,940.82
2022-08-29T08:07:03.763Z,940.82
2022-08-29T08:08:08.747Z,940.82
2022-08-29T08:09:04.304Z,940.85
2022-08-29T08:10:04.938Z,940.86
2022-08-29T08:11:05.154Z,940.89
2022-08-29T08:12:08.235Z,940.86
2022-08-29T08:13:06.307Z,940.88
2022-08-29T08:14:07.383Z,940.87
2022-08-29T08:15:08.224Z,940.87
2022-08-29T08:16:09.223Z,940.87
2022-08-29T08:17:10.130Z,940.89
2022-08-29T08:18:10.779Z,940.87
2022-08-29T08:19:11.199Z,940.89
2022-08-29T08:20:11.605Z,940.89
2022-08-29T08:21:11.853Z,940.9
2022-08-29T08:22:12.551Z,940.9
2022-08-29T08:23:14.733Z,940.91
2022-08-29T08:24:17.395Z,940.89
2022-08-29T08:25:14.291Z,940.9
2022-08-29T08:26:14.443Z,940.9
2022-08-29T08:27:15.091Z,940.92
2022-08-29T08:28:15.407Z,940.93
2022-08-29T08:29:16.135Z,940.92
2022-08-29T08:30:16.769Z,940.93
2022-08-29T08:31:17.703Z,940.92
2022-08-29T08:32:18.604Z,940.91
2022-08-29T08:33:18.738Z,940.94
2022-08-29T08:34:19.269Z,940.91
2022-08-29T08:35:19.888Z,940.95
2022-08-29T08:36:20.433Z,940.9
2022-08-29T08:37:27.855Z,940.92
2022-08-29T08:38:22.089Z,940.91
2022-08-29T08:39:22.380Z,940.92
2022-08-29T08:40:22.643Z,940.92
2022-08-29T08:41:26.985Z,940.93
2022-08-29T08:42:24.966Z,940.93
2022-08-29T08:43:26.899Z,940.95
2022-08-29T08:44:25.210Z,940.94
2022-08-29T08:45:26.233Z,940.99
2022-08-29T08:46:26.973Z,941
2022-08-29T08:47:27.808Z,941.03
2022-08-29T08:48:28.042Z,941.02
2022-08-29T08:49:28.950Z,941
2022-08-29T08:50:29.178Z,941.04
2022-08-29T08:51:30.102Z,941.05
2022-08-29T08:52:31.035Z,941.07
2022-08-29T08:53:31.339Z,941.05
2022-08-29T08:54:32.266Z,941.04
2022-08-29T08:55:33.017Z,941.05
2022-08-29T08:56:33.220Z,941.05
2022-08-29T08:57:34.146Z,941.07
2022-08-29T08:58:35.065Z,941.09
2022-08-29T08:59:35.293Z,941.11
2022-08-29T09:00:35.919Z,941.12
2022-08-29T09:01:36.769Z,941.12
2022-08-29T09:02:37.052Z,941.16
2022-08-29T09:03:37.671Z,941.21
2022-08-29T09:04:37.894Z,941.21
2022-08-29T09:05:39.492Z,941.21
2022-08-29T09:06:39.483Z,941.18
2022-08-29T09:07:39.706Z,941.26
2022-08-29T09:08:40.636Z,941.32
2022-08-29T09:09:41.181Z,941.29
2022-08-29T09:10:41.681Z,941.28
2022-08-29T09:11:42.635Z,941.33
2022-08-29T09:12:42.942Z,941.33
2022-08-29T09:13:43.134Z,941.32
2022-08-29T09:14:43.344Z,941.28
2022-08-29T09:15:44.132Z,941.33
2022-08-29T09:16:44.668Z,941.36
2022-08-29T09:17:44.885Z,941.33
2022-08-29T09:18:45.484Z,941.33
2022-08-29T09:19:45.475Z,941.32
2022-08-29T09:20:46.567Z,941.3
2022-08-29T09:21:47.343Z,941.34
2022-08-29T09:22:48.276Z,941.28
2022-08-29T09:23:48.639Z,941.26
2022-08-29T09:24:48.862Z,941.3
2022-08-29T09:25:49.168Z,941.28
2022-08-29T09:26:50.175Z,941.28
2022-08-29T09:27:50.393Z,941.27
2022-08-29T09:28:50.617Z,941.24
2022-08-29T09:29:51.348Z,941.25
2022-08-29T09:30:52.249Z,941.23
2022-08-29T09:31:53.290Z,941.22
2022-08-29T09:32:54.130Z,941.2
2022-08-29T09:33:54.995Z,941.2
2022-08-29T09:35:08.240Z,941.19
2022-08-29T09:35:56.770Z,941.23
2022-08-29T09:36:57.042Z,941.23
2022-08-29T09:37:57.991Z,941.24
2022-08-29T09:38:58.939Z,941.28
2022-08-29T09:39:59.583Z,941.29
2022-08-29T09:40:59.900Z,941.29
2022-08-29T09:42:00.572Z,941.26
2022-08-29T09:43:01.514Z,941.23
2022-08-29T09:44:02.473Z,941.25
2022-08-29T09:45:02.985Z,941.17
2022-08-29T09:46:03.199Z,941.26
2022-08-29T09:47:03.896Z,941.24
2022-08-29T09:48:04.206Z,941.23
2022-08-29T09:49:04.439Z,941.24
2022-08-29T09:50:04.676Z,941.22
2022-08-29T09:51:05.615Z,941.21
2022-08-29T09:52:06.275Z,941.19
2022-08-29T09:53:08.117Z,941.21
2022-08-29T09:54:08.009Z,941.24
2022-08-29T09:55:08.966Z,941.21
2022-08-29T09:56:28.882Z,941.21
2022-08-29T09:57:29.832Z,941.22
2022-08-29T09:58:30.447Z,941.19
2022-08-29T09:59:30.853Z,941.16
2022-08-29T10:00:31.421Z,941.18
2022-08-29T10:01:31.926Z,941.21
2022-08-29T10:02:32.475Z,941.21
2022-08-29T10:03:32.672Z,941.23
2022-08-29T10:04:33.724Z,941.23
2022-08-29T10:05:34.243Z,941.26
2022-08-29T10:06:35.900Z,941.24
2022-08-29T10:07:36.322Z,941.25
2022-08-29T10:08:36.374Z,941.24
2022-08-29T10:09:37.014Z,941.2
2022-08-29T10:10:37.825Z,941.21
2022-08-29T10:11:38.345Z,941.24
2022-08-29T10:12:39.147Z,941.23
2022-08-29T10:13:40.067Z,941.25
2022-08-29T10:14:41.007Z,941.27
2022-08-29T10:15:50.277Z,941.3
2022-08-29T10:16:42.403Z,941.29
2022-08-29T10:17:43.291Z,941.3
2022-08-29T10:18:43.840Z,941.29
2022-08-29T10:19:44.361Z,941.24
2022-08-29T10:20:45.020Z,941.28
2022-08-29T10:21:45.333Z,941.26
2022-08-29T10:22:46.255Z,941.17
2022-08-29T10:23:47.283Z,941.25
2022-08-29T10:24:47.801Z,941.25
2022-08-29T10:25:48.439Z,941.23
2022-08-29T10:26:49.476Z,941.23
2022-08-29T10:27:49.732Z,941.17
2022-08-29T10:28:51.532Z,941.17
2022-08-29T10:29:50.916Z,941.24
2022-08-29T10:30:51.153Z,941.26
2022-08-29T10:31:52.268Z,941.19
2022-08-29T10:32:52.526Z,941.3
2022-08-29T10:33:52.933Z,941.3
2022-08-29T10:34:53.865Z,941.29
2022-08-29T10:35:54.875Z,941.25
2022-08-29T10:36:55.864Z,941.25
2022-08-29T10:37:56.834Z,941.28
2022-08-29T10:38:57.341Z,941.26
2022-08-29T10:39:57.642Z,941.19
2022-08-29T10:40:58.258Z,941.17
2022-08-29T10:41:58.849Z,941.22
2022-08-29T10:42:59.505Z,941.25
2022-08-29T10:43:59.922Z,941.2
2022-08-29T10:45:00.807Z,941.2
2022-08-29T10:46:01.543Z,941.23
2022-08-29T10:47:01.763Z,941.24
2022-08-29T10:48:02.678Z,941.25
2022-08-29T10:49:03.401Z,941.22
2022-08-29T10:50:04.120Z,941.19
2022-08-29T10:51:04.172Z,941.19
2022-08-29T10:52:05.171Z,941.19
2022-08-29T10:53:05.811Z,941.18
2022-08-29T10:54:06.456Z,941.21
2022-08-29T10:55:07.130Z,941.2
2022-08-29T10:56:08.047Z,941.23
2022-08-29T10:57:09.048Z,941.2
2022-08-29T10:58:12.418Z,941.24
2022-08-29T10:59:10.066Z,941.22
2022-08-29T11:00:10.283Z,941.18
2022-08-29T11:01:11.273Z,941.19
2022-08-29T11:02:11.877Z,941.17
2022-08-29T11:03:12.117Z,941.15
2022-08-29T11:04:13.073Z,941.15
2022-08-29T11:05:13.229Z,941.18
2022-08-29T11:06:14.147Z,941.12
2022-08-29T11:07:14.295Z,941.1
2022-08-29T11:08:16.357Z,941.14
2022-08-29T11:09:15.767Z,941.1
2022-08-29T11:10:16.430Z,941.07
2022-08-29T11:11:16.790Z,941.09
2022-08-29T11:12:17.973Z,941.12
2022-08-29T11:13:18.253Z,941.11
2022-08-29T11:14:19.190Z,941.11
2022-08-29T11:15:19.446Z,941.12
2022-08-29T11:16:19.991Z,941.09
2022-08-29T11:17:20.479Z,941.09
2022-08-29T11:18:22.425Z,941.13
2022-08-29T11:19:22.708Z,941.15
2022-08-29T11:20:22.024Z,941.09
2022-08-29T11:21:22.939Z,941.07
2022-08-29T11:22:23.276Z,941.11
2022-08-29T11:23:23.918Z,941.1
2022-08-29T11:24:24.256Z,941.06
2022-08-29T11:25:24.648Z,941.07
2022-08-29T11:26:25.439Z,941.03
2022-08-29T11:27:25.598Z,941.06
2022-08-29T11:28:26.140Z,941.09
2022-08-29T11:29:27.102Z,941.03
2022-08-29T11:30:28.040Z,941.04
2022-08-29T11:31:29.217Z,941.03
2022-08-29T11:32:29.428Z,941.01
2022-08-29T11:33:30.445Z,941.03
2022-08-29T11:34:30.613Z,941.02
2022-08-29T11:35:31.581Z,941.04
2022-08-29T11:36:32.232Z,941.03
2022-08-29T11:37:32.523Z,940.99
2022-08-29T11:38:33.586Z,941.04
2022-08-29T11:39:34.502Z,941
2022-08-29T11:41:40.720Z,940.93
2022-08-29T11:42:56.726Z,940.94
2022-08-29T11:43:41.928Z,940.88
2022-08-29T11:44:42.274Z,940.95
2022-08-29T11:45:42.506Z,940.9
2022-08-29T11:46:43.244Z,940.94
2022-08-29T11:47:42.928Z,940.94
2022-08-29T11:48:43.045Z,940.94
2022-08-29T11:49:43.163Z,940.95
2022-08-29T11:50:43.423Z,940.95
2022-08-29T11:51:44.290Z,940.98
2022-08-29T11:52:44.524Z,940.93
2022-08-29T11:53:45.460Z,940.94
2022-08-29T11:54:46.403Z,940.92
2022-08-29T11:55:47.341Z,940.9
2022-08-29T11:56:48.276Z,940.88
2022-08-29T11:57:49.113Z,940.9
2022-08-29T11:58:49.276Z,940.89
2022-08-29T11:59:49.495Z,940.88
2022-08-29T12:00:49.705Z,940.9
2022-08-29T12:01:50.446Z,940.94
2022-08-29T12:02:50.587Z,940.89
2022-08-29T12:03:51.389Z,940.82
2022-08-29T12:04:51.796Z,940.85
2022-08-29T12:05:52.773Z,940.91
2022-08-29T12:06:53.711Z,940.91
2022-08-29T12:07:54.221Z,940.87
2022-08-29T12:08:54.813Z,940.89
2022-08-29T12:09:55.076Z,940.85
2022-08-29T12:10:56.005Z,940.84
2022-08-29T12:11:56.253Z,940.82
2022-08-29T12:12:56.736Z,940.88
2022-08-29T12:13:57.373Z,940.86
2022-08-29T12:14:58.313Z,940.89
2022-08-29T12:15:58.715Z,940.86
2022-08-29T12:16:59.149Z,940.84
2022-08-29T12:18:14.332Z,940.86
2022-08-29T12:19:14.814Z,940.83
2022-08-29T12:20:15.030Z,940.83
2022-08-29T12:21:15.248Z,940.85
2022-08-29T12:22:22.169Z,940.86
2022-08-29T12:23:17.411Z,940.78
2022-08-29T12:24:17.543Z,940.82
2022-08-29T12:25:18.589Z,940.84
2022-08-29T12:26:23.032Z,940.85
2022-08-29T12:27:20.281Z,940.84
2022-08-29T12:28:20.097Z,940.86
2022-08-29T12:29:20.328Z,940.82
2022-08-29T12:30:20.805Z,940.89
2022-08-29T12:31:21.862Z,940.86
2022-08-29T12:32:24.515Z,940.9
2022-08-29T12:33:23.289Z,940.82
2022-08-29T12:34:23.822Z,940.84
2022-08-29T12:35:24.599Z,940.82
2022-08-29T12:36:25.399Z,940.86
2022-08-29T12:37:26.055Z,940.9
2022-08-29T12:38:26.203Z,940.85
2022-08-29T12:39:26.526Z,940.81
2022-08-29T12:40:27.223Z,940.86
2022-08-29T12:41:27.709Z,940.82
2022-08-29T12:42:28.602Z,940.8
2022-08-29T12:43:29.335Z,940.79
2022-08-29T12:44:30.277Z,940.8
2022-08-29T12:45:31.052Z,940.8
2022-08-29T12:46:31.732Z,940.8
2022-08-29T12:47:32.105Z,940.83
2022-08-29T12:48:33.210Z,940.85
2022-08-29T12:49:34.185Z,940.83